sensor_id;sensor_type;location;lat;lon;timestamp;temperature;humidity
31113;DHT22;17763;48.730;9.136;2022-07-23T00:02:21;24.70;68.20
31113;DHT22;17763;48.730;9.136;2022-07-23T00:04:47;24.60;67.70
31113;DHT22;17763;48.730;9.136;2022-07-23T00:07:15;24.50;67.80
31113;DHT22;17763;48.730;9.136;2022-07-23T00:09:43;24.50;68.00
31113;DHT22;17763;48.730;9.136;2022-07-23T00:12:09;24.50;68.30
31113;DHT22;17763;48.730;9.136;2022-07-23T00:14:34;24.40;68.50
31113;DHT22;17763;48.730;9.136;2022-07-23T00:17:00;24.50;68.60
31113;DHT22;17763;48.730;9.136;2022-07-23T00:19:25;24.40;68.70
31113;DHT22;17763;48.730;9.136;2022-07-23T00:21:53;24.40;68.50
31113;DHT22;17763;48.730;9.136;2022-07-23T00:24:19;24.30;68.50
31113;DHT22;17763;48.730;9.136;2022-07-23T00:26:47;24.30;68.60
31113;DHT22;17763;48.730;9.136;2022-07-23T00:29:12;24.30;68.70
31113;DHT22;17763;48.730;9.136;2022-07-23T00:31:38;24.20;68.80
31113;DHT22;17763;48.730;9.136;2022-07-23T00:34:03;24.20;69.10
31113;DHT22;17763;48.730;9.136;2022-07-23T00:36:29;24.10;69.50
31113;DHT22;17763;48.730;9.136;2022-07-23T00:38:57;24.10;70.30
31113;DHT22;17763;48.730;9.136;2022-07-23T00:41:23;24.10;71.60
31113;DHT22;17763;48.730;9.136;2022-07-23T00:43:49;24.00;72.50
31113;DHT22;17763;48.730;9.136;2022-07-23T00:46:22;24.00;73.30
31113;DHT22;17763;48.730;9.136;2022-07-23T00:48:50;23.90;73.60
31113;DHT22;17763;48.730;9.136;2022-07-23T00:51:18;23.80;74.20
31113;DHT22;17763;48.730;9.136;2022-07-23T00:53:44;23.80;74.60
31113;DHT22;17763;48.730;9.136;2022-07-23T00:56:10;23.70;74.40
31113;DHT22;17763;48.730;9.136;2022-07-23T00:58:36;23.60;74.70
31113;DHT22;17763;48.730;9.136;2022-07-23T01:01:04;23.60;75.20
31113;DHT22;17763;48.730;9.136;2022-07-23T01:03:30;23.40;75.60
31113;DHT22;17763;48.730;9.136;2022-07-23T01:05:55;23.40;75.70
31113;DHT22;17763;48.730;9.136;2022-07-23T01:08:26;23.30;75.80
31113;DHT22;17763;48.730;9.136;2022-07-23T01:10:52;23.30;76.10
31113;DHT22;17763;48.730;9.136;2022-07-23T01:13:18;23.30;76.50
31113;DHT22;17763;48.730;9.136;2022-07-23T01:15:43;23.20;76.40
31113;DHT22;17763;48.730;9.136;2022-07-23T01:18:11;23.20;76.00
31113;DHT22;17763;48.730;9.136;2022-07-23T01:20:38;23.20;76.20
31113;DHT22;17763;48.730;9.136;2022-07-23T01:23:04;23.10;76.10
31113;DHT22;17763;48.730;9.136;2022-07-23T01:25:29;23.20;76.10
31113;DHT22;17763;48.730;9.136;2022-07-23T01:27:55;23.20;75.80
31113;DHT22;17763;48.730;9.136;2022-07-23T01:30:21;23.20;75.80
31113;DHT22;17763;48.730;9.136;2022-07-23T01:32:46;23.10;75.80
31113;DHT22;17763;48.730;9.136;2022-07-23T01:35:12;23.10;75.80
31113;DHT22;17763;48.730;9.136;2022-07-23T01:37:40;23.10;76.00
31113;DHT22;17763;48.730;9.136;2022-07-23T01:40:07;23.10;76.20
31113;DHT22;17763;48.730;9.136;2022-07-23T01:42:35;23.10;76.40
31113;DHT22;17763;48.730;9.136;2022-07-23T01:45:05;23.10;76.70
31113;DHT22;17763;48.730;9.136;2022-07-23T01:47:30;23.10;77.20
31113;DHT22;17763;48.730;9.136;2022-07-23T01:49:56;23.10;77.60
31113;DHT22;17763;48.730;9.136;2022-07-23T01:52:24;23.00;78.00
31113;DHT22;17763;48.730;9.136;2022-07-23T01:54:50;23.00;78.40
31113;DHT22;17763;48.730;9.136;2022-07-23T01:57:15;23.00;78.90
31113;DHT22;17763;48.730;9.136;2022-07-23T01:59:41;23.00;79.20
31113;DHT22;17763;48.730;9.136;2022-07-23T02:02:06;23.00;78.70
31113;DHT22;17763;48.730;9.136;2022-07-23T02:04:34;23.00;78.50
31113;DHT22;17763;48.730;9.136;2022-07-23T02:07:02;23.00;78.40
31113;DHT22;17763;48.730;9.136;2022-07-23T02:09:30;23.00;79.00
31113;DHT22;17763;48.730;9.136;2022-07-23T02:11:56;23.00;78.80
31113;DHT22;17763;48.730;9.136;2022-07-23T02:14:22;23.00;79.10
31113;DHT22;17763;48.730;9.136;2022-07-23T02:16:47;23.00;79.40
31113;DHT22;17763;48.730;9.136;2022-07-23T02:19:13;22.90;79.20
31113;DHT22;17763;48.730;9.136;2022-07-23T02:21:41;22.90;79.20
31113;DHT22;17763;48.730;9.136;2022-07-23T02:24:07;22.90;79.50
31113;DHT22;17763;48.730;9.136;2022-07-23T02:26:32;22.90;79.80
31113;DHT22;17763;48.730;9.136;2022-07-23T02:29:04;22.80;80.10
31113;DHT22;17763;48.730;9.136;2022-07-23T02:31:30;22.80;80.60
31113;DHT22;17763;48.730;9.136;2022-07-23T02:33:58;22.80;81.20
31113;DHT22;17763;48.730;9.136;2022-07-23T02:36:24;22.70;81.50
31113;DHT22;17763;48.730;9.136;2022-07-23T02:38:50;22.80;81.90
31113;DHT22;17763;48.730;9.136;2022-07-23T02:41:18;22.70;82.10
31113;DHT22;17763;48.730;9.136;2022-07-23T02:43:43;22.70;82.10
31113;DHT22;17763;48.730;9.136;2022-07-23T02:46:11;22.70;82.40
31113;DHT22;17763;48.730;9.136;2022-07-23T02:48:39;22.60;82.80
31113;DHT22;17763;48.730;9.136;2022-07-23T02:51:05;22.60;83.30
31113;DHT22;17763;48.730;9.136;2022-07-23T02:53:30;22.50;84.00
31113;DHT22;17763;48.730;9.136;2022-07-23T02:55:56;22.40;84.30
31113;DHT22;17763;48.730;9.136;2022-07-23T02:58:22;22.40;84.70
31113;DHT22;17763;48.730;9.136;2022-07-23T03:00:50;22.40;84.90
31113;DHT22;17763;48.730;9.136;2022-07-23T03:03:16;22.40;84.60
31113;DHT22;17763;48.730;9.136;2022-07-23T03:05:41;22.30;84.70
31113;DHT22;17763;48.730;9.136;2022-07-23T03:08:09;22.30;84.60
31113;DHT22;17763;48.730;9.136;2022-07-23T03:10:35;22.40;84.40
31113;DHT22;17763;48.730;9.136;2022-07-23T03:13:00;22.40;84.20
31113;DHT22;17763;48.730;9.136;2022-07-23T03:15:28;22.40;84.40
31113;DHT22;17763;48.730;9.136;2022-07-23T03:17:58;22.40;84.30
31113;DHT22;17763;48.730;9.136;2022-07-23T03:20:24;22.40;84.30
31113;DHT22;17763;48.730;9.136;2022-07-23T03:22:49;22.40;84.40
31113;DHT22;17763;48.730;9.136;2022-07-23T03:25:18;22.40;84.50
31113;DHT22;17763;48.730;9.136;2022-07-23T03:27:46;22.40;84.70
31113;DHT22;17763;48.730;9.136;2022-07-23T03:30:12;22.40;84.80
31113;DHT22;17763;48.730;9.136;2022-07-23T03:32:37;22.40;84.80
31113;DHT22;17763;48.730;9.136;2022-07-23T03:35:04;22.40;84.80
31113;DHT22;17763;48.730;9.136;2022-07-23T03:37:30;22.40;84.90
31113;DHT22;17763;48.730;9.136;2022-07-23T03:39:55;22.40;85.00
31113;DHT22;17763;48.730;9.136;2022-07-23T03:42:21;22.40;85.10
31113;DHT22;17763;48.730;9.136;2022-07-23T03:44:46;22.40;85.50
31113;DHT22;17763;48.730;9.136;2022-07-23T03:47:12;22.40;86.00
31113;DHT22;17763;48.730;9.136;2022-07-23T03:49:40;22.50;86.70
31113;DHT22;17763;48.730;9.136;2022-07-23T03:52:06;22.50;86.90
31113;DHT22;17763;48.730;9.136;2022-07-23T03:54:31;22.50;87.20
31113;DHT22;17763;48.730;9.136;2022-07-23T03:56:57;22.40;87.50
31113;DHT22;17763;48.730;9.136;2022-07-23T03:59:25;22.40;87.80
31113;DHT22;17763;48.730;9.136;2022-07-23T04:01:51;22.40;88.20
31113;DHT22;17763;48.730;9.136;2022-07-23T04:04:16;22.40;88.50
31113;DHT22;17763;48.730;9.136;2022-07-23T04:06:44;22.40;89.10
31113;DHT22;17763;48.730;9.136;2022-07-23T04:09:12;22.40;89.80
31113;DHT22;17763;48.730;9.136;2022-07-23T04:11:38;22.40;90.00
31113;DHT22;17763;48.730;9.136;2022-07-23T04:14:04;22.50;90.20
31113;DHT22;17763;48.730;9.136;2022-07-23T04:16:30;22.50;90.30
31113;DHT22;17763;48.730;9.136;2022-07-23T04:18:58;22.50;90.20
31113;DHT22;17763;48.730;9.136;2022-07-23T04:21:24;22.50;90.30
31113;DHT22;17763;48.730;9.136;2022-07-23T04:23:50;22.50;90.20
31113;DHT22;17763;48.730;9.136;2022-07-23T04:26:15;22.50;90.20
31113;DHT22;17763;48.730;9.136;2022-07-23T04:28:43;22.50;90.40
31113;DHT22;17763;48.730;9.136;2022-07-23T04:31:09;22.50;90.60
31113;DHT22;17763;48.730;9.136;2022-07-23T04:33:34;22.50;90.60
31113;DHT22;17763;48.730;9.136;2022-07-23T04:36:00;22.50;90.50
31113;DHT22;17763;48.730;9.136;2022-07-23T04:38:30;22.50;90.50
31113;DHT22;17763;48.730;9.136;2022-07-23T04:40:56;22.50;90.40
31113;DHT22;17763;48.730;9.136;2022-07-23T04:43:24;22.50;90.60
31113;DHT22;17763;48.730;9.136;2022-07-23T04:45:49;22.50;90.80
31113;DHT22;17763;48.730;9.136;2022-07-23T04:48:15;22.50;90.90
31113;DHT22;17763;48.730;9.136;2022-07-23T04:50:40;22.60;91.00
31113;DHT22;17763;48.730;9.136;2022-07-23T04:53:08;22.60;91.20
31113;DHT22;17763;48.730;9.136;2022-07-23T04:55:36;22.60;91.20
31113;DHT22;17763;48.730;9.136;2022-07-23T04:58:04;22.60;91.30
31113;DHT22;17763;48.730;9.136;2022-07-23T05:00:29;22.60;91.30
31113;DHT22;17763;48.730;9.136;2022-07-23T05:02:55;22.60;91.50
31113;DHT22;17763;48.730;9.136;2022-07-23T05:05:21;22.60;91.40
31113;DHT22;17763;48.730;9.136;2022-07-23T05:07:46;22.60;91.50
31113;DHT22;17763;48.730;9.136;2022-07-23T05:10:12;22.70;91.60
31113;DHT22;17763;48.730;9.136;2022-07-23T05:12:42;22.70;91.70
31113;DHT22;17763;48.730;9.136;2022-07-23T05:15:08;22.60;91.80
31113;DHT22;17763;48.730;9.136;2022-07-23T05:17:33;22.60;92.20
31113;DHT22;17763;48.730;9.136;2022-07-23T05:20:02;22.70;92.00
31113;DHT22;17763;48.730;9.136;2022-07-23T05:22:28;22.70;92.20
31113;DHT22;17763;48.730;9.136;2022-07-23T05:24:54;22.70;92.30
31113;DHT22;17763;48.730;9.136;2022-07-23T05:27:22;22.70;92.40
31113;DHT22;17763;48.730;9.136;2022-07-23T05:29:47;22.70;92.40
31113;DHT22;17763;48.730;9.136;2022-07-23T05:32:13;22.70;92.20
31113;DHT22;17763;48.730;9.136;2022-07-23T05:34:41;22.70;92.30
31113;DHT22;17763;48.730;9.136;2022-07-23T05:37:07;22.80;92.30
31113;DHT22;17763;48.730;9.136;2022-07-23T05:39:32;22.80;92.40
31113;DHT22;17763;48.730;9.136;2022-07-23T05:41:58;22.80;92.30
31113;DHT22;17763;48.730;9.136;2022-07-23T05:44:26;22.90;92.50
31113;DHT22;17763;48.730;9.136;2022-07-23T05:46:52;22.90;92.70
31113;DHT22;17763;48.730;9.136;2022-07-23T05:49:18;22.90;92.80
31113;DHT22;17763;48.730;9.136;2022-07-23T05:51:48;22.80;93.00
31113;DHT22;17763;48.730;9.136;2022-07-23T05:54:14;22.80;93.40
31113;DHT22;17763;48.730;9.136;2022-07-23T05:56:40;22.80;93.60
31113;DHT22;17763;48.730;9.136;2022-07-23T05:59:05;22.90;93.70
31113;DHT22;17763;48.730;9.136;2022-07-23T06:01:33;22.90;93.60
31113;DHT22;17763;48.730;9.136;2022-07-23T06:03:59;22.90;93.70
31113;DHT22;17763;48.730;9.136;2022-07-23T06:06:25;22.90;93.50
31113;DHT22;17763;48.730;9.136;2022-07-23T06:08:50;22.90;93.20
31113;DHT22;17763;48.730;9.136;2022-07-23T06:11:16;22.90;93.40
31113;DHT22;17763;48.730;9.136;2022-07-23T06:13:46;23.00;93.60
31113;DHT22;17763;48.730;9.136;2022-07-23T06:16:11;23.00;93.90
31113;DHT22;17763;48.730;9.136;2022-07-23T06:18:37;23.00;95.10
31113;DHT22;17763;48.730;9.136;2022-07-23T06:21:02;23.00;96.00
31113;DHT22;17763;48.730;9.136;2022-07-23T06:23:28;23.00;96.50
31113;DHT22;17763;48.730;9.136;2022-07-23T06:25:56;23.00;96.20
31113;DHT22;17763;48.730;9.136;2022-07-23T06:28:24;23.00;95.30
31113;DHT22;17763;48.730;9.136;2022-07-23T06:30:49;23.00;94.10
31113;DHT22;17763;48.730;9.136;2022-07-23T06:33:17;23.00;93.70
31113;DHT22;17763;48.730;9.136;2022-07-23T06:35:48;23.00;93.80
31113;DHT22;17763;48.730;9.136;2022-07-23T06:38:16;22.90;94.70
31113;DHT22;17763;48.730;9.136;2022-07-23T06:40:41;22.90;95.30
31113;DHT22;17763;48.730;9.136;2022-07-23T06:43:10;22.90;95.00
31113;DHT22;17763;48.730;9.136;2022-07-23T06:45:40;22.90;94.60
31113;DHT22;17763;48.730;9.136;2022-07-23T06:48:10;22.90;94.60
31113;DHT22;17763;48.730;9.136;2022-07-23T06:50:36;22.90;94.00
31113;DHT22;17763;48.730;9.136;2022-07-23T06:53:04;22.90;94.00
31113;DHT22;17763;48.730;9.136;2022-07-23T06:55:29;22.80;93.90
31113;DHT22;17763;48.730;9.136;2022-07-23T06:57:56;22.90;93.90
31113;DHT22;17763;48.730;9.136;2022-07-23T07:00:26;22.80;93.70
31113;DHT22;17763;48.730;9.136;2022-07-23T07:02:55;22.80;94.00
31113;DHT22;17763;48.730;9.136;2022-07-23T07:05:23;22.80;94.20
31113;DHT22;17763;48.730;9.136;2022-07-23T07:07:50;22.80;94.30
31113;DHT22;17763;48.730;9.136;2022-07-23T07:10:16;22.80;94.40
31113;DHT22;17763;48.730;9.136;2022-07-23T07:12:43;22.80;94.60
31113;DHT22;17763;48.730;9.136;2022-07-23T07:15:11;22.90;94.40
31113;DHT22;17763;48.730;9.136;2022-07-23T07:17:37;22.90;94.80
31113;DHT22;17763;48.730;9.136;2022-07-23T07:20:03;22.80;94.40
31113;DHT22;17763;48.730;9.136;2022-07-23T07:22:29;22.70;93.40
31113;DHT22;17763;48.730;9.136;2022-07-23T07:24:55;22.70;93.20
31113;DHT22;17763;48.730;9.136;2022-07-23T07:27:20;22.60;93.00
31113;DHT22;17763;48.730;9.136;2022-07-23T07:29:46;22.50;92.00
31113;DHT22;17763;48.730;9.136;2022-07-23T07:32:11;22.50;92.10
31113;DHT22;17763;48.730;9.136;2022-07-23T07:34:37;22.40;92.30
31113;DHT22;17763;48.730;9.136;2022-07-23T07:37:05;22.50;92.30
31113;DHT22;17763;48.730;9.136;2022-07-23T07:39:30;22.50;92.30
31113;DHT22;17763;48.730;9.136;2022-07-23T07:41:56;22.60;92.50
31113;DHT22;17763;48.730;9.136;2022-07-23T07:44:22;22.70;92.60
31113;DHT22;17763;48.730;9.136;2022-07-23T07:46:53;22.60;91.90
31113;DHT22;17763;48.730;9.136;2022-07-23T07:49:19;22.70;92.20
31113;DHT22;17763;48.730;9.136;2022-07-23T07:51:45;22.70;92.70
31113;DHT22;17763;48.730;9.136;2022-07-23T07:54:12;22.70;92.80
31113;DHT22;17763;48.730;9.136;2022-07-23T07:56:40;22.80;92.80
31113;DHT22;17763;48.730;9.136;2022-07-23T07:59:05;22.80;92.80
31113;DHT22;17763;48.730;9.136;2022-07-23T08:01:31;22.80;93.30
31113;DHT22;17763;48.730;9.136;2022-07-23T08:03:57;22.80;93.70
31113;DHT22;17763;48.730;9.136;2022-07-23T08:06:22;22.90;94.00
31113;DHT22;17763;48.730;9.136;2022-07-23T08:08:48;23.00;92.90
31113;DHT22;17763;48.730;9.136;2022-07-23T08:11:14;23.00;93.00
31113;DHT22;17763;48.730;9.136;2022-07-23T08:13:39;23.10;92.70
31113;DHT22;17763;48.730;9.136;2022-07-23T08:16:06;23.10;92.40
31113;DHT22;17763;48.730;9.136;2022-07-23T08:18:32;23.00;91.50
31113;DHT22;17763;48.730;9.136;2022-07-23T08:20:57;22.90;91.70
31113;DHT22;17763;48.730;9.136;2022-07-23T08:23:23;22.90;91.90
31113;DHT22;17763;48.730;9.136;2022-07-23T08:25:49;22.90;91.70
31113;DHT22;17763;48.730;9.136;2022-07-23T08:28:15;22.90;91.70
31113;DHT22;17763;48.730;9.136;2022-07-23T08:30:44;22.90;92.10
31113;DHT22;17763;48.730;9.136;2022-07-23T08:33:11;22.90;92.10
31113;DHT22;17763;48.730;9.136;2022-07-23T08:35:40;22.90;92.00
31113;DHT22;17763;48.730;9.136;2022-07-23T08:38:08;23.00;92.20
31113;DHT22;17763;48.730;9.136;2022-07-23T08:40:39;23.00;92.10
31113;DHT22;17763;48.730;9.136;2022-07-23T08:43:09;23.00;91.90
31113;DHT22;17763;48.730;9.136;2022-07-23T08:45:41;23.10;92.20
31113;DHT22;17763;48.730;9.136;2022-07-23T08:48:12;23.10;91.50
31113;DHT22;17763;48.730;9.136;2022-07-23T08:50:43;23.10;91.50
31113;DHT22;17763;48.730;9.136;2022-07-23T08:53:15;23.20;91.20
31113;DHT22;17763;48.730;9.136;2022-07-23T08:55:50;23.20;91.20
31113;DHT22;17763;48.730;9.136;2022-07-23T08:58:17;23.30;91.50
31113;DHT22;17763;48.730;9.136;2022-07-23T09:00:43;23.40;91.70
31113;DHT22;17763;48.730;9.136;2022-07-23T09:03:21;23.50;91.70
31113;DHT22;17763;48.730;9.136;2022-07-23T09:05:48;23.60;90.90
31113;DHT22;17763;48.730;9.136;2022-07-23T09:08:15;23.70;89.80
31113;DHT22;17763;48.730;9.136;2022-07-23T09:15:52;23.90;84.70
31113;DHT22;17763;48.730;9.136;2022-07-23T09:18:28;23.90;84.10
31113;DHT22;17763;48.730;9.136;2022-07-23T09:21:09;24.00;84.00
31113;DHT22;17763;48.730;9.136;2022-07-23T09:26:44;24.20;82.70
31113;DHT22;17763;48.730;9.136;2022-07-23T09:31:49;24.20;81.50
31113;DHT22;17763;48.730;9.136;2022-07-23T09:36:52;24.30;78.60
31113;DHT22;17763;48.730;9.136;2022-07-23T09:39:30;24.40;79.30
31113;DHT22;17763;48.730;9.136;2022-07-23T09:41:56;24.50;77.30
31113;DHT22;17763;48.730;9.136;2022-07-23T09:44:22;24.50;77.30
31113;DHT22;17763;48.730;9.136;2022-07-23T09:46:52;24.50;77.90
31113;DHT22;17763;48.730;9.136;2022-07-23T09:49:23;24.60;77.80
31113;DHT22;17763;48.730;9.136;2022-07-23T09:51:55;24.70;77.90
31113;DHT22;17763;48.730;9.136;2022-07-23T09:56:55;24.80;79.70
31113;DHT22;17763;48.730;9.136;2022-07-23T09:59:27;24.90;79.60
31113;DHT22;17763;48.730;9.136;2022-07-23T10:01:55;24.90;79.50
31113;DHT22;17763;48.730;9.136;2022-07-23T10:04:23;25.00;78.90
31113;DHT22;17763;48.730;9.136;2022-07-23T10:06:54;25.00;79.00
31113;DHT22;17763;48.730;9.136;2022-07-23T10:09:37;25.10;77.50
31113;DHT22;17763;48.730;9.136;2022-07-23T10:12:14;25.10;76.40
31113;DHT22;17763;48.730;9.136;2022-07-23T10:14:46;25.10;78.40
31113;DHT22;17763;48.730;9.136;2022-07-23T10:17:12;25.10;76.70
31113;DHT22;17763;48.730;9.136;2022-07-23T10:19:38;25.10;74.60
31113;DHT22;17763;48.730;9.136;2022-07-23T10:22:18;25.10;74.60
31113;DHT22;17763;48.730;9.136;2022-07-23T10:30:09;25.20;74.30
31113;DHT22;17763;48.730;9.136;2022-07-23T10:37:52;25.10;75.60
31113;DHT22;17763;48.730;9.136;2022-07-23T10:40:22;25.10;75.40
31113;DHT22;17763;48.730;9.136;2022-07-23T10:42:50;25.10;75.50
31113;DHT22;17763;48.730;9.136;2022-07-23T10:47:54;25.00;74.90
31113;DHT22;17763;48.730;9.136;2022-07-23T10:50:24;25.10;75.70
31113;DHT22;17763;48.730;9.136;2022-07-23T10:57:57;25.30;74.80
31113;DHT22;17763;48.730;9.136;2022-07-23T11:00:24;25.40;75.20
31113;DHT22;17763;48.730;9.136;2022-07-23T11:02:53;25.40;75.60
31113;DHT22;17763;48.730;9.136;2022-07-23T11:05:24;25.50;74.80
31113;DHT22;17763;48.730;9.136;2022-07-23T11:24:01;25.80;71.80
31113;DHT22;17763;48.730;9.136;2022-07-23T11:32:06;25.90;73.20
31113;DHT22;17763;48.730;9.136;2022-07-23T11:34:48;25.90;71.40
31113;DHT22;17763;48.730;9.136;2022-07-23T11:37:39;26.00;71.50
31113;DHT22;17763;48.730;9.136;2022-07-23T11:40:12;26.00;70.40
31113;DHT22;17763;48.730;9.136;2022-07-23T11:42:53;26.10;71.20
31113;DHT22;17763;48.730;9.136;2022-07-23T11:45:18;26.10;71.90
31113;DHT22;17763;48.730;9.136;2022-07-23T11:47:44;26.20;72.70
31113;DHT22;17763;48.730;9.136;2022-07-23T11:50:12;26.20;72.00
31113;DHT22;17763;48.730;9.136;2022-07-23T11:52:38;26.30;69.80
31113;DHT22;17763;48.730;9.136;2022-07-23T11:55:09;26.30;69.80
31113;DHT22;17763;48.730;9.136;2022-07-23T11:57:39;26.30;70.80
31113;DHT22;17763;48.730;9.136;2022-07-23T12:00:10;26.30;70.80
31113;DHT22;17763;48.730;9.136;2022-07-23T12:02:43;26.30;70.40
31113;DHT22;17763;48.730;9.136;2022-07-23T12:05:14;26.40;69.00
31113;DHT22;17763;48.730;9.136;2022-07-23T12:07:41;26.40;68.60
31113;DHT22;17763;48.730;9.136;2022-07-23T12:12:46;26.40;69.90
31113;DHT22;17763;48.730;9.136;2022-07-23T12:15:13;26.50;69.80
31113;DHT22;17763;48.730;9.136;2022-07-23T12:17:45;26.50;70.40
31113;DHT22;17763;48.730;9.136;2022-07-23T12:20:18;26.50;70.10
31113;DHT22;17763;48.730;9.136;2022-07-23T12:22:47;26.50;68.10
31113;DHT22;17763;48.730;9.136;2022-07-23T12:25:19;26.60;68.50
31113;DHT22;17763;48.730;9.136;2022-07-23T12:27:46;26.50;68.20
31113;DHT22;17763;48.730;9.136;2022-07-23T12:30:25;26.50;68.50
31113;DHT22;17763;48.730;9.136;2022-07-23T12:32:56;26.50;69.00
31113;DHT22;17763;48.730;9.136;2022-07-23T12:35:29;26.50;68.10
31113;DHT22;17763;48.730;9.136;2022-07-23T12:38:04;26.50;68.80
31113;DHT22;17763;48.730;9.136;2022-07-23T12:40:32;26.50;68.50
31113;DHT22;17763;48.730;9.136;2022-07-23T12:43:04;26.60;67.30
31113;DHT22;17763;48.730;9.136;2022-07-23T12:45:46;26.60;67.10
31113;DHT22;17763;48.730;9.136;2022-07-23T12:53:23;26.70;67.00
31113;DHT22;17763;48.730;9.136;2022-07-23T12:56:19;26.80;66.30
31113;DHT22;17763;48.730;9.136;2022-07-23T13:04:03;26.70;67.10
31113;DHT22;17763;48.730;9.136;2022-07-23T13:09:05;26.80;66.90
31113;DHT22;17763;48.730;9.136;2022-07-23T13:11:31;26.90;66.50
31113;DHT22;17763;48.730;9.136;2022-07-23T13:13:58;26.90;66.70
31113;DHT22;17763;48.730;9.136;2022-07-23T13:16:26;26.90;65.50
31113;DHT22;17763;48.730;9.136;2022-07-23T13:18:52;27.00;66.80
31113;DHT22;17763;48.730;9.136;2022-07-23T13:21:18;27.00;66.20
31113;DHT22;17763;48.730;9.136;2022-07-23T13:23:44;27.00;65.90
31113;DHT22;17763;48.730;9.136;2022-07-23T13:26:10;27.00;64.90
31113;DHT22;17763;48.730;9.136;2022-07-23T13:28:36;27.10;65.30
31113;DHT22;17763;48.730;9.136;2022-07-23T13:31:04;27.10;64.90
31113;DHT22;17763;48.730;9.136;2022-07-23T13:33:31;27.10;64.30
31113;DHT22;17763;48.730;9.136;2022-07-23T13:35:57;27.20;65.30
31113;DHT22;17763;48.730;9.136;2022-07-23T13:38:23;27.20;65.00
31113;DHT22;17763;48.730;9.136;2022-07-23T13:40:52;27.20;63.50
31113;DHT22;17763;48.730;9.136;2022-07-23T13:43:21;27.20;63.50
31113;DHT22;17763;48.730;9.136;2022-07-23T13:45:47;27.10;63.20
31113;DHT22;17763;48.730;9.136;2022-07-23T13:48:14;27.20;63.00
31113;DHT22;17763;48.730;9.136;2022-07-23T13:50:40;27.10;63.80
31113;DHT22;17763;48.730;9.136;2022-07-23T13:53:10;27.10;63.50
31113;DHT22;17763;48.730;9.136;2022-07-23T13:55:37;27.10;63.50
31113;DHT22;17763;48.730;9.136;2022-07-23T13:58:07;27.00;63.70
31113;DHT22;17763;48.730;9.136;2022-07-23T14:00:34;27.00;64.30
31113;DHT22;17763;48.730;9.136;2022-07-23T14:03:03;26.90;63.40
31113;DHT22;17763;48.730;9.136;2022-07-23T14:05:31;26.90;63.10
31113;DHT22;17763;48.730;9.136;2022-07-23T14:07:59;26.80;63.60
31113;DHT22;17763;48.730;9.136;2022-07-23T14:10:25;26.80;63.60
31113;DHT22;17763;48.730;9.136;2022-07-23T14:12:53;26.80;64.50
31113;DHT22;17763;48.730;9.136;2022-07-23T14:15:22;26.80;64.10
31113;DHT22;17763;48.730;9.136;2022-07-23T14:17:50;26.70;64.10
31113;DHT22;17763;48.730;9.136;2022-07-23T14:20:18;26.70;64.10
31113;DHT22;17763;48.730;9.136;2022-07-23T14:22:44;26.70;63.40
31113;DHT22;17763;48.730;9.136;2022-07-23T14:25:12;26.80;63.40
31113;DHT22;17763;48.730;9.136;2022-07-23T14:27:38;26.80;62.50
31113;DHT22;17763;48.730;9.136;2022-07-23T14:30:06;26.90;61.90
31113;DHT22;17763;48.730;9.136;2022-07-23T14:32:35;27.00;62.40
31113;DHT22;17763;48.730;9.136;2022-07-23T14:35:01;27.00;62.00
31113;DHT22;17763;48.730;9.136;2022-07-23T14:37:27;27.10;61.70
31113;DHT22;17763;48.730;9.136;2022-07-23T14:39:53;27.10;60.60
31113;DHT22;17763;48.730;9.136;2022-07-23T14:42:19;27.10;60.40
31113;DHT22;17763;48.730;9.136;2022-07-23T14:44:47;27.20;59.90
31113;DHT22;17763;48.730;9.136;2022-07-23T14:47:13;27.30;59.20
31113;DHT22;17763;48.730;9.136;2022-07-23T14:49:38;27.30;59.00
31113;DHT22;17763;48.730;9.136;2022-07-23T14:52:06;27.40;59.80
31113;DHT22;17763;48.730;9.136;2022-07-23T14:54:33;27.50;59.40
31113;DHT22;17763;48.730;9.136;2022-07-23T14:56:59;27.50;58.60
31113;DHT22;17763;48.730;9.136;2022-07-23T14:59:31;27.60;58.90
31113;DHT22;17763;48.730;9.136;2022-07-23T15:01:57;27.60;59.40
31113;DHT22;17763;48.730;9.136;2022-07-23T15:04:28;27.60;59.40
31113;DHT22;17763;48.730;9.136;2022-07-23T15:06:56;27.60;58.40
31113;DHT22;17763;48.730;9.136;2022-07-23T15:09:21;27.70;58.10
31113;DHT22;17763;48.730;9.136;2022-07-23T15:11:49;27.70;58.10
31113;DHT22;17763;48.730;9.136;2022-07-23T15:14:17;27.80;57.40
31113;DHT22;17763;48.730;9.136;2022-07-23T15:16:42;27.80;56.90
31113;DHT22;17763;48.730;9.136;2022-07-23T15:19:08;27.80;56.90
31113;DHT22;17763;48.730;9.136;2022-07-23T15:21:36;27.80;57.20
31113;DHT22;17763;48.730;9.136;2022-07-23T15:24:04;27.80;56.70
31113;DHT22;17763;48.730;9.136;2022-07-23T15:26:34;27.80;57.00
31113;DHT22;17763;48.730;9.136;2022-07-23T15:29:02;27.90;58.40
31113;DHT22;17763;48.730;9.136;2022-07-23T15:31:28;27.90;58.10
31113;DHT22;17763;48.730;9.136;2022-07-23T15:33:57;27.90;58.30
31113;DHT22;17763;48.730;9.136;2022-07-23T15:36:22;27.80;56.90
31113;DHT22;17763;48.730;9.136;2022-07-23T15:38:48;27.80;57.50
31113;DHT22;17763;48.730;9.136;2022-07-23T15:41:16;27.90;58.10
31113;DHT22;17763;48.730;9.136;2022-07-23T15:43:42;27.90;57.70
31113;DHT22;17763;48.730;9.136;2022-07-23T15:46:07;27.90;57.80
31113;DHT22;17763;48.730;9.136;2022-07-23T15:48:36;27.80;58.10
31113;DHT22;17763;48.730;9.136;2022-07-23T15:51:02;27.90;58.30
31113;DHT22;17763;48.730;9.136;2022-07-23T15:53:31;28.00;57.90
31113;DHT22;17763;48.730;9.136;2022-07-23T15:56:00;28.10;58.30
31113;DHT22;17763;48.730;9.136;2022-07-23T15:58:29;28.10;57.90
31113;DHT22;17763;48.730;9.136;2022-07-23T16:00:57;28.20;58.20
31113;DHT22;17763;48.730;9.136;2022-07-23T16:03:23;28.30;58.10
31113;DHT22;17763;48.730;9.136;2022-07-23T16:05:49;28.20;57.80
31113;DHT22;17763;48.730;9.136;2022-07-23T16:08:17;28.20;58.00
31113;DHT22;17763;48.730;9.136;2022-07-23T16:10:42;28.20;58.00
31113;DHT22;17763;48.730;9.136;2022-07-23T16:13:08;28.20;57.90
31113;DHT22;17763;48.730;9.136;2022-07-23T16:15:38;28.20;57.80
31113;DHT22;17763;48.730;9.136;2022-07-23T16:18:06;28.20;57.30
31113;DHT22;17763;48.730;9.136;2022-07-23T16:20:36;28.20;57.10
31113;DHT22;17763;48.730;9.136;2022-07-23T16:23:04;28.20;57.00
31113;DHT22;17763;48.730;9.136;2022-07-23T16:25:30;28.20;56.80
31113;DHT22;17763;48.730;9.136;2022-07-23T16:27:56;28.20;56.90
31113;DHT22;17763;48.730;9.136;2022-07-23T16:30:22;28.10;56.70
31113;DHT22;17763;48.730;9.136;2022-07-23T16:32:50;28.00;57.10
31113;DHT22;17763;48.730;9.136;2022-07-23T16:35:18;28.00;57.20
31113;DHT22;17763;48.730;9.136;2022-07-23T16:37:43;27.90;57.60
31113;DHT22;17763;48.730;9.136;2022-07-23T16:40:12;27.80;58.00
31113;DHT22;17763;48.730;9.136;2022-07-23T16:42:42;27.80;57.30
31113;DHT22;17763;48.730;9.136;2022-07-23T16:45:08;27.70;57.00